createdAt,value
2023-03-06T00:01:29.626Z,18.27
2023-03-06T00:03:57.640Z,10.90
2023-03-06T00:06:25.839Z,12.47
2023-03-06T00:08:54.208Z,12.03
2023-03-06T00:11:22.230Z,14.27
2023-03-06T00:13:53.147Z,15.67
2023-03-06T00:16:21.155Z,12.90
2023-03-06T00:18:49.069Z,11.40
2023-03-06T00:21:17.034Z,13.40
2023-03-06T00:23:45.195Z,16.03
2023-03-06T00:26:13.199Z,14.63
2023-03-06T00:28:43.294Z,12.80
2023-03-06T00:31:12.665Z,13.33
2023-03-06T00:33:40.711Z,11.37
2023-03-06T00:36:09.309Z,12.30
2023-03-06T00:38:37.380Z,13.30
2023-03-06T00:41:09.511Z,11.80
2023-03-06T00:43:37.489Z,13.77
2023-03-06T00:46:06.022Z,15.53
2023-03-06T00:48:35.877Z,15.60
2023-03-06T00:51:03.941Z,13.13
2023-03-06T00:53:31.904Z,13.73
2023-03-06T00:55:59.849Z,14.43
2023-03-06T00:58:27.974Z,15.33
2023-03-06T01:00:57.900Z,13.77
2023-03-06T01:03:25.843Z,11.37
2023-03-06T01:05:55.267Z,13.90
2023-03-06T01:08:23.274Z,16.13
2023-03-06T01:10:51.425Z,15.30
2023-03-06T01:13:19.461Z,14.00
2023-03-06T01:15:47.521Z,15.23
2023-03-06T01:18:15.638Z,15.97
2023-03-06T01:20:43.628Z,16.20
2023-03-06T01:23:13.045Z,12.67
2023-03-06T01:25:40.994Z,11.27
2023-03-06T01:28:09.006Z,14.23
2023-03-06T01:30:37.382Z,13.30
2023-03-06T01:33:05.304Z,17.00
2023-03-06T01:35:33.370Z,13.50
2023-03-06T01:38:01.307Z,16.97
2023-03-06T01:40:32.416Z,13.80
2023-03-06T01:43:00.460Z,16.13
2023-03-06T01:46:20.512Z,11.90
2023-03-06T01:48:51.339Z,14.97
2023-03-06T01:51:19.453Z,14.57
2023-03-06T01:53:49.377Z,14.87
2023-03-06T01:56:19.203Z,13.90
2023-03-06T01:58:49.751Z,14.63
2023-03-06T02:01:18.952Z,15.32
2023-03-06T02:03:49.695Z,14.27
2023-03-06T02:06:21.698Z,14.88
2023-03-06T02:08:52.730Z,18.47
2023-03-06T02:11:46.962Z,13.77
2023-03-06T02:14:17.907Z,13.77
2023-03-06T02:16:46.225Z,13.30
2023-03-06T02:19:30.012Z,17.00
2023-03-06T02:21:58.059Z,14.33
2023-03-06T02:24:36.129Z,14.90
2023-03-06T02:27:07.809Z,14.10
2023-03-06T02:29:36.339Z,17.40
2023-03-06T02:32:05.592Z,15.30
2023-03-06T02:34:51.257Z,14.60
2023-03-06T02:37:19.186Z,16.40
2023-03-06T02:39:51.157Z,15.67
2023-03-06T02:42:22.688Z,13.37
2023-03-06T02:47:18.750Z,17.87
2023-03-06T02:49:46.857Z,13.27
2023-03-06T02:52:14.828Z,15.30
2023-03-06T02:54:42.797Z,15.60
2023-03-06T02:57:11.136Z,15.93
2023-03-06T02:59:40.886Z,15.83
2023-03-06T03:02:08.800Z,17.40
2023-03-06T03:04:36.880Z,19.07
2023-03-06T03:07:05.202Z,14.27
2023-03-06T03:09:36.921Z,16.93
2023-03-06T03:12:06.660Z,19.13
2023-03-06T03:14:35.093Z,21.73
2023-03-06T03:17:05.611Z,18.63
2023-03-06T03:19:33.922Z,16.77
2023-03-06T03:22:01.968Z,16.80
2023-03-06T03:24:29.942Z,17.53
2023-03-06T03:26:58.024Z,16.57
2023-03-06T03:29:26.353Z,17.17
2023-03-06T03:31:55.244Z,21.47
2023-03-06T03:36:55.943Z,17.37
2023-03-06T03:39:24.137Z,16.40
2023-03-06T03:41:52.144Z,18.13
2023-03-06T03:44:20.956Z,17.87
2023-03-06T03:46:49.900Z,18.93
2023-03-06T03:49:22.007Z,19.30
2023-03-06T03:51:52.727Z,19.47
2023-03-06T03:54:22.122Z,19.03
2023-03-06T03:56:51.852Z,20.60
2023-03-06T03:59:26.037Z,19.50
2023-03-06T04:02:17.105Z,18.90
2023-03-06T04:04:56.145Z,19.30
2023-03-06T04:07:25.746Z,24.27
2023-03-06T04:09:54.808Z,16.25
2023-03-06T04:12:23.280Z,20.83
2023-03-06T04:14:51.604Z,17.60
2023-03-06T04:17:20.098Z,21.40
2023-03-06T04:19:48.897Z,16.50
2023-03-06T04:22:18.149Z,17.00
2023-03-06T04:24:49.408Z,21.07
2023-03-06T04:27:18.568Z,17.60
2023-03-06T04:29:46.581Z,20.67
2023-03-06T04:32:14.751Z,19.40
2023-03-06T04:34:42.908Z,22.87
2023-03-06T04:37:19.087Z,21.20
2023-03-06T04:39:48.456Z,18.10
2023-03-06T04:42:16.456Z,27.80
2023-03-06T04:44:44.622Z,18.37
2023-03-06T04:47:13.199Z,21.50
2023-03-06T04:49:41.307Z,22.50
2023-03-06T04:52:09.308Z,21.67
2023-03-06T04:54:37.386Z,20.20
2023-03-06T04:57:06.754Z,21.33
2023-03-06T04:59:34.750Z,18.07
2023-03-06T05:02:02.853Z,19.13
2023-03-06T05:04:31.886Z,25.13
2023-03-06T05:06:59.812Z,19.03
2023-03-06T05:09:27.750Z,22.20
2023-03-06T05:11:55.793Z,17.87
2023-03-06T05:14:25.107Z,19.30
2023-03-06T05:16:53.033Z,21.53
2023-03-06T05:19:20.960Z,19.90
2023-03-06T05:21:48.984Z,19.77
2023-03-06T05:24:16.924Z,18.80
2023-03-06T05:26:44.841Z,19.70
2023-03-06T05:29:12.814Z,20.17
2023-03-06T05:31:42.183Z,19.13
2023-03-06T05:34:13.985Z,22.63
2023-03-06T05:36:42.551Z,23.03
2023-03-06T05:39:11.028Z,17.63
2023-03-06T05:41:38.961Z,19.53
2023-03-06T05:44:06.933Z,22.57
2023-03-06T05:46:34.906Z,17.63
2023-03-06T05:49:04.215Z,19.07
2023-03-06T05:51:32.649Z,15.13
2023-03-06T05:54:00.670Z,19.13
2023-03-06T05:56:28.598Z,19.03
2023-03-06T05:58:56.502Z,18.90
2023-03-06T06:01:25.386Z,16.47
2023-03-06T06:03:53.505Z,17.37
2023-03-06T06:06:22.877Z,16.57
2023-03-06T06:08:50.898Z,17.80
2023-03-06T06:11:20.825Z,16.53
2023-03-06T06:13:49.738Z,18.67
2023-03-06T06:16:19.318Z,17.60
2023-03-06T06:18:47.636Z,21.27
2023-03-06T06:25:23.823Z,18.13
2023-03-06T06:27:51.739Z,15.97
2023-03-06T06:30:20.072Z,16.23
2023-03-06T06:32:48.242Z,15.03
2023-03-06T06:35:16.855Z,13.30
2023-03-06T06:37:44.927Z,14.57
2023-03-06T06:40:13.555Z,16.13
2023-03-06T06:42:44.030Z,18.43
2023-03-06T06:45:12.772Z,16.10
2023-03-06T06:47:41.664Z,15.27
2023-03-06T06:50:13.029Z,15.80
2023-03-06T06:52:41.195Z,14.73
2023-03-06T06:55:10.124Z,13.50
2023-03-06T06:57:38.099Z,14.10
2023-03-06T07:00:09.528Z,17.40
2023-03-06T07:02:37.560Z,15.83
2023-03-06T07:05:06.232Z,15.17
2023-03-06T07:07:36.260Z,14.10
2023-03-06T07:10:05.772Z,14.23
2023-03-06T07:12:35.220Z,12.57
2023-03-06T07:15:04.131Z,13.77
2023-03-06T07:17:33.602Z,11.93
2023-03-06T07:20:01.585Z,12.17
2023-03-06T07:22:35.858Z,12.97
2023-03-06T07:25:10.418Z,14.33
2023-03-06T07:27:38.590Z,12.43
2023-03-06T07:30:07.581Z,14.63
2023-03-06T07:32:36.926Z,17.17
2023-03-06T07:35:19.314Z,13.63
2023-03-06T07:37:48.140Z,13.80
2023-03-06T07:40:16.463Z,12.97
2023-03-06T07:42:44.414Z,11.73
2023-03-06T07:45:15.374Z,13.18
2023-03-06T07:47:44.854Z,10.63
2023-03-06T07:50:13.457Z,12.73
2023-03-06T07:52:41.389Z,13.03
2023-03-06T07:55:10.888Z,14.50
2023-03-06T07:57:39.564Z,15.80
2023-03-06T08:00:11.860Z,13.37
2023-03-06T08:02:44.704Z,14.93
2023-03-06T08:05:15.272Z,16.67
2023-03-06T08:07:43.405Z,12.13
2023-03-06T08:10:14.939Z,12.93
2023-03-06T08:12:43.029Z,14.47
2023-03-06T08:15:12.357Z,14.40
2023-03-06T08:17:40.508Z,12.27
2023-03-06T08:20:11.441Z,13.53
2023-03-06T08:22:39.811Z,12.75
2023-03-06T08:25:09.224Z,13.73
2023-03-06T08:27:37.802Z,13.27
2023-03-06T08:30:06.897Z,13.30
2023-03-06T08:32:36.058Z,13.90
2023-03-06T08:35:04.706Z,14.13
2023-03-06T08:37:34.088Z,11.70
2023-03-06T08:40:04.589Z,13.57
2023-03-06T08:42:32.711Z,11.57
2023-03-06T08:45:00.749Z,10.30
2023-03-06T08:47:28.788Z,9.77
2023-03-06T08:49:57.175Z,12.33
2023-03-06T08:52:26.263Z,8.80
2023-03-06T08:54:55.551Z,11.57
2023-03-06T08:57:23.943Z,14.07
2023-03-06T08:59:51.882Z,13.73
2023-03-06T09:02:19.996Z,13.77
2023-03-06T09:04:48.006Z,11.60
2023-03-06T09:07:15.960Z,13.03
2023-03-06T09:09:44.117Z,14.20
2023-03-06T09:12:13.581Z,10.57
2023-03-06T09:14:41.537Z,10.50
2023-03-06T09:17:09.547Z,14.80
2023-03-06T09:19:37.741Z,13.33
2023-03-06T09:22:05.722Z,13.77
2023-03-06T09:24:34.242Z,13.87
2023-03-06T09:27:02.287Z,11.67
2023-03-06T09:29:31.588Z,11.90
2023-03-06T09:31:59.798Z,12.77
2023-03-06T09:34:28.229Z,13.53
2023-03-06T09:36:57.650Z,14.67
2023-03-06T09:39:27.220Z,15.20
2023-03-06T09:41:57.435Z,12.87
2023-03-06T09:44:28.659Z,14.73
2023-03-06T09:47:39.347Z,15.50
2023-03-06T09:50:23.051Z,13.90
2023-03-06T09:53:04.129Z,13.60
2023-03-06T09:55:34.221Z,12.75
2023-03-06T09:58:07.368Z,17.63
2023-03-06T10:00:39.691Z,12.63
2023-03-06T10:03:18.889Z,10.47
2023-03-06T10:05:51.081Z,12.97
2023-03-06T10:08:25.822Z,11.60
2023-03-06T10:11:01.917Z,13.80
2023-03-06T10:13:38.326Z,12.53
2023-03-06T10:16:17.135Z,13.63
2023-03-06T10:18:46.739Z,10.37
2023-03-06T10:21:26.116Z,13.63
2023-03-06T10:23:55.628Z,12.33
2023-03-06T10:26:26.803Z,10.20
2023-03-06T10:29:10.016Z,16.60
2023-03-06T10:31:41.085Z,10.60
2023-03-06T10:36:44.967Z,10.93
2023-03-06T10:39:17.202Z,11.23
2023-03-06T10:41:46.325Z,10.70
2023-03-06T10:44:26.916Z,9.77
2023-03-06T10:46:56.360Z,10.07
2023-03-06T10:49:32.166Z,10.97
2023-03-06T10:52:03.105Z,9.40
2023-03-06T10:54:33.089Z,11.60
2023-03-06T10:57:19.224Z,12.93
2023-03-06T10:59:53.532Z,11.60
2023-03-06T11:02:28.971Z,8.90
2023-03-06T11:05:00.047Z,7.07
2023-03-06T11:10:03.724Z,8.27
2023-03-06T11:12:33.406Z,8.90
2023-03-06T11:15:21.986Z,9.70
2023-03-06T11:18:03.626Z,11.70
2023-03-06T11:20:50.519Z,9.73
2023-03-06T11:23:29.091Z,9.27
2023-03-06T11:26:02.248Z,9.47
2023-03-06T11:28:32.863Z,7.80
2023-03-06T11:31:04.959Z,9.15
2023-03-06T11:33:40.282Z,7.37
2023-03-06T11:36:16.464Z,7.63
2023-03-06T11:38:50.038Z,7.90
2023-03-06T11:41:29.871Z,7.90
2023-03-06T11:44:04.380Z,9.37
2023-03-06T11:46:38.698Z,9.13
2023-03-06T11:49:16.805Z,6.57
2023-03-06T11:51:51.503Z,9.10
2023-03-06T11:54:19.665Z,8.17
2023-03-06T11:56:56.046Z,10.00
2023-03-06T11:59:55.955Z,6.87
2023-03-06T12:02:39.328Z,8.03
2023-03-06T12:05:28.456Z,7.40
2023-03-06T12:08:04.481Z,9.47
2023-03-06T12:10:37.185Z,8.33
2023-03-06T12:13:27.828Z,6.57
2023-03-06T12:16:18.137Z,8.13
2023-03-06T12:18:54.068Z,10.95
2023-03-06T12:21:32.486Z,7.40
2023-03-06T12:24:12.723Z,6.63
2023-03-06T12:27:02.876Z,5.90
2023-03-06T12:29:49.067Z,6.77
2023-03-06T12:32:30.405Z,7.53
2023-03-06T12:35:24.304Z,5.70
2023-03-06T12:38:02.220Z,8.30
2023-03-06T12:40:48.703Z,4.73
2023-03-06T12:43:50.142Z,5.60
2023-03-06T12:46:21.576Z,4.87
2023-03-06T12:49:05.336Z,5.70
2023-03-06T12:51:34.745Z,5.50
2023-03-06T12:54:04.139Z,6.43
2023-03-06T12:56:35.343Z,4.30
2023-03-06T12:59:03.361Z,6.87
2023-03-06T13:01:57.506Z,4.40
2023-03-06T13:04:36.402Z,3.53
2023-03-06T13:07:22.858Z,5.00
2023-03-06T13:10:06.614Z,6.33
2023-03-06T13:12:50.396Z,6.33
2023-03-06T13:15:34.708Z,5.90
2023-03-06T13:18:03.438Z,8.13
2023-03-06T13:20:36.521Z,7.90
2023-03-06T13:23:53.034Z,5.30
2023-03-06T13:26:50.724Z,6.60
2023-03-06T13:29:52.463Z,9.80
2023-03-06T13:32:31.922Z,6.67
2023-03-06T13:35:00.113Z,5.67
2023-03-06T13:37:52.870Z,9.83
2023-03-06T13:40:33.559Z,6.50
2023-03-06T13:43:18.247Z,5.70
2023-03-06T13:45:49.022Z,7.23
2023-03-06T13:48:44.174Z,6.68
2023-03-06T13:52:20.689Z,3.97
2023-03-06T13:54:59.417Z,7.73
2023-03-06T13:57:49.107Z,5.47
2023-03-06T14:00:33.659Z,4.57
2023-03-06T14:03:23.365Z,5.23
2023-03-06T14:05:52.765Z,3.57
2023-03-06T14:08:22.631Z,3.40
2023-03-06T14:11:01.683Z,4.43
2023-03-06T14:13:45.424Z,3.67
2023-03-06T14:16:21.048Z,7.50
2023-03-06T14:18:51.630Z,4.50
2023-03-06T14:21:30.455Z,5.75
2023-03-06T14:24:00.787Z,5.97
2023-03-06T14:26:30.899Z,6.47
2023-03-06T14:29:00.560Z,3.73
2023-03-06T14:31:31.591Z,5.67
2023-03-06T14:36:35.193Z,5.47
2023-03-06T14:39:08.817Z,4.13
2023-03-06T14:41:37.975Z,4.73
2023-03-06T14:44:21.607Z,3.87
2023-03-06T14:46:51.642Z,4.20
2023-03-06T14:49:22.614Z,3.27
2023-03-06T14:54:23.362Z,5.03
2023-03-06T14:56:54.614Z,4.60
2023-03-06T14:59:26.938Z,4.23
2023-03-06T15:02:00.161Z,2.67
2023-03-06T15:04:32.666Z,4.20
2023-03-06T15:07:01.133Z,4.97
2023-03-06T15:09:32.712Z,5.60
2023-03-06T15:12:02.909Z,6.10
2023-03-06T15:14:34.273Z,3.70
2023-03-06T15:17:24.996Z,5.23
2023-03-06T15:19:56.378Z,5.75
2023-03-06T15:22:30.791Z,5.17
2023-03-06T15:25:20.352Z,2.60
2023-03-06T15:27:54.408Z,3.53
2023-03-06T15:30:25.109Z,2.57
2023-03-06T15:32:53.365Z,2.78
2023-03-06T15:35:31.970Z,3.37
2023-03-06T15:38:00.610Z,4.50
2023-03-06T15:40:31.190Z,3.63
2023-03-06T15:43:00.007Z,3.40
2023-03-06T15:45:29.955Z,4.10
2023-03-06T15:47:58.016Z,3.77
2023-03-06T15:50:29.053Z,13.77
2023-03-06T15:52:58.591Z,12.17
2023-03-06T15:55:26.959Z,6.13
2023-03-06T15:57:58.618Z,7.30
2023-03-06T16:00:29.318Z,3.93
2023-03-06T16:04:12.525Z,4.93
2023-03-06T16:06:40.622Z,4.67
2023-03-06T16:09:10.668Z,5.40
2023-03-06T16:11:43.896Z,6.20
2023-03-06T16:14:24.041Z,4.90
2023-03-06T16:16:54.126Z,5.80
2023-03-06T16:19:26.375Z,4.80
2023-03-06T16:21:56.052Z,3.93
2023-03-06T16:24:26.230Z,2.83
2023-03-06T16:26:55.448Z,2.33
2023-03-06T16:29:25.409Z,2.47
2023-03-06T16:31:55.094Z,7.37
2023-03-06T16:34:23.256Z,2.80
2023-03-06T16:36:51.695Z,3.90
2023-03-06T16:39:22.398Z,5.67
2023-03-06T16:41:52.051Z,4.03
2023-03-06T16:44:20.610Z,2.77
2023-03-06T16:46:50.894Z,4.30
2023-03-06T16:49:21.032Z,4.13
2023-03-06T16:51:49.302Z,2.53
2023-03-06T16:54:17.441Z,3.23
2023-03-06T16:56:45.944Z,4.33
2023-03-06T16:59:15.300Z,2.50
2023-03-06T17:01:43.898Z,2.60
2023-03-06T17:04:12.576Z,4.00
2023-03-06T17:06:41.748Z,2.87
2023-03-06T17:09:11.114Z,3.93
2023-03-06T17:11:39.596Z,3.40
2023-03-06T17:14:07.855Z,3.07
2023-03-06T17:16:40.290Z,6.77
2023-03-06T17:19:08.422Z,5.03
2023-03-06T17:21:38.446Z,3.60
2023-03-06T17:24:07.320Z,5.32
2023-03-06T17:27:26.164Z,3.00
2023-03-06T17:29:56.977Z,4.63
2023-03-06T17:32:27.109Z,3.88
2023-03-06T17:34:55.390Z,4.13
2023-03-06T17:37:23.420Z,4.90
2023-03-06T17:39:51.488Z,4.27
2023-03-06T17:42:19.486Z,5.20
2023-03-06T17:44:47.962Z,5.37
2023-03-06T17:47:15.934Z,7.37
2023-03-06T17:49:45.541Z,5.10
2023-03-06T17:52:13.511Z,5.50
2023-03-06T17:54:41.526Z,5.03
2023-03-06T17:57:09.503Z,5.07
2023-03-06T17:59:37.475Z,5.33
2023-03-06T18:02:06.436Z,5.57
2023-03-06T18:04:34.588Z,4.73
2023-03-06T18:07:04.088Z,6.53
2023-03-06T18:09:32.418Z,5.90
2023-03-06T18:12:00.368Z,3.07
2023-03-06T18:14:28.344Z,5.83
2023-03-06T18:16:56.328Z,5.37
2023-03-06T18:19:24.319Z,3.07
2023-03-06T18:21:52.417Z,6.03
2023-03-06T18:24:21.796Z,6.70
2023-03-06T18:26:49.921Z,4.30
2023-03-06T18:29:17.893Z,3.37
2023-03-06T18:31:49.259Z,6.67
2023-03-06T18:34:17.987Z,5.37
2023-03-06T18:36:47.272Z,4.97
2023-03-06T18:39:15.993Z,3.60
2023-03-06T18:41:45.429Z,3.90
2023-03-06T18:44:15.097Z,3.10
2023-03-06T18:46:43.249Z,4.40
2023-03-06T18:49:12.619Z,9.30
2023-03-06T18:51:40.752Z,5.27
2023-03-06T18:54:09.659Z,4.37
2023-03-06T18:56:39.424Z,4.53
2023-03-06T18:59:08.923Z,5.97
2023-03-06T19:01:37.777Z,5.70
2023-03-06T19:04:06.314Z,5.37
2023-03-06T19:06:34.501Z,4.93
2023-03-06T19:09:02.607Z,5.33
2023-03-06T19:11:31.951Z,4.47
2023-03-06T19:14:00.486Z,7.27
2023-03-06T19:16:31.211Z,7.20
2023-03-06T19:19:00.531Z,5.65
2023-03-06T19:21:29.353Z,15.17
2023-03-06T19:23:58.117Z,4.60
2023-03-06T19:26:27.048Z,3.77
2023-03-06T19:28:55.108Z,2.53
2023-03-06T19:31:25.948Z,3.57
2023-03-06T19:33:57.683Z,3.92
2023-03-06T19:36:28.898Z,4.20
2023-03-06T19:38:57.823Z,4.80
2023-03-06T19:41:26.585Z,6.90
2023-03-06T19:43:56.824Z,5.10
2023-03-06T19:46:26.224Z,3.05
2023-03-06T19:49:05.662Z,7.73
2023-03-06T19:51:33.640Z,4.80
2023-03-06T19:54:01.644Z,5.77
2023-03-06T19:56:31.901Z,5.13
2023-03-06T19:59:00.096Z,5.18
2023-03-06T20:01:29.117Z,6.23
2023-03-06T20:03:59.992Z,9.33
2023-03-06T20:06:29.826Z,8.23
2023-03-06T20:08:58.298Z,4.70
2023-03-06T20:11:30.324Z,5.80
2023-03-06T20:14:00.799Z,6.00
2023-03-06T20:16:30.037Z,6.05
2023-03-06T20:19:01.166Z,7.17
2023-03-06T20:21:31.107Z,10.77
2023-03-06T20:23:59.326Z,9.33
2023-03-06T20:26:29.501Z,10.30
2023-03-06T20:28:59.197Z,8.50
2023-03-06T20:31:30.263Z,8.23
2023-03-06T20:36:30.102Z,6.93
2023-03-06T20:39:00.777Z,7.23
2023-03-06T20:41:30.815Z,7.40
2023-03-06T20:44:00.549Z,25.20
2023-03-06T20:46:28.878Z,15.00
2023-03-06T20:48:58.148Z,11.20
2023-03-06T20:51:29.051Z,11.40
2023-03-06T20:53:57.516Z,10.05
2023-03-06T20:56:27.469Z,8.20
2023-03-06T20:58:55.418Z,7.70
2023-03-06T21:01:24.937Z,7.70
2023-03-06T21:03:53.340Z,8.73
2023-03-06T21:06:22.150Z,5.57
2023-03-06T21:08:51.716Z,6.83
2023-03-06T21:11:19.701Z,8.40
2023-03-06T21:13:47.778Z,7.03
2023-03-06T21:16:18.460Z,8.00
2023-03-06T21:18:46.865Z,5.97
2023-03-06T21:21:18.437Z,10.30
2023-03-06T21:23:47.239Z,8.83
2023-03-06T21:26:18.479Z,7.07
2023-03-06T21:28:46.691Z,6.60
2023-03-06T21:31:16.910Z,6.73
2023-03-06T21:33:47.598Z,8.20
2023-03-06T21:36:19.606Z,7.45
2023-03-06T21:38:48.706Z,7.37
2023-03-06T21:41:20.335Z,8.23
2023-03-06T21:43:48.356Z,7.83
2023-03-06T21:46:16.354Z,7.70
2023-03-06T21:48:44.617Z,5.97
2023-03-06T21:51:15.815Z,6.57
2023-03-06T21:53:44.946Z,8.40
2023-03-06T21:56:14.168Z,6.73
2023-03-06T21:58:43.599Z,6.53
2023-03-06T22:01:11.738Z,7.27
2023-03-06T22:03:40.075Z,6.80
2023-03-06T22:06:10.079Z,6.53
2023-03-06T22:08:38.067Z,9.90
2023-03-06T22:11:07.329Z,6.33
2023-03-06T22:13:35.282Z,5.63
2023-03-06T22:16:05.613Z,8.47
2023-03-06T22:18:33.982Z,8.02
2023-03-06T22:21:02.101Z,6.97
2023-03-06T22:23:30.064Z,8.17
2023-03-06T22:26:02.573Z,7.23
2023-03-06T22:28:30.637Z,6.30
2023-03-06T22:31:07.339Z,5.37
2023-03-06T22:33:35.334Z,5.37
2023-03-06T22:36:06.278Z,7.70
2023-03-06T22:41:02.823Z,6.40
2023-03-06T22:43:31.124Z,6.03
2023-03-06T22:46:02.075Z,7.87
2023-03-06T22:48:31.983Z,4.88
2023-03-06T22:51:03.735Z,5.47
2023-03-06T22:53:32.001Z,4.90
2023-03-06T22:56:00.405Z,4.73
2023-03-06T22:58:34.281Z,6.97
2023-03-06T23:01:06.452Z,6.07
2023-03-06T23:03:36.211Z,4.97
2023-03-06T23:06:07.530Z,4.33
2023-03-06T23:08:35.712Z,6.17
2023-03-06T23:11:03.610Z,4.07
2023-03-06T23:13:50.350Z,4.90
2023-03-06T23:16:37.860Z,6.13
2023-03-06T23:19:26.690Z,3.70
2023-03-06T23:22:14.379Z,7.23
2023-03-06T23:25:01.253Z,4.43
2023-03-06T23:27:29.478Z,5.93
2023-03-06T23:29:59.121Z,3.60
2023-03-06T23:32:27.420Z,4.37
2023-03-06T23:34:56.780Z,5.63
2023-03-06T23:37:24.891Z,4.73
2023-03-06T23:39:53.025Z,6.90
2023-03-06T23:42:21.050Z,4.43
2023-03-06T23:44:49.400Z,5.33
2023-03-06T23:47:20.025Z,5.83
2023-03-06T23:49:48.037Z,4.10
2023-03-06T23:52:17.361Z,4.63
2023-03-06T23:54:45.269Z,9.73
2023-03-06T23:57:13.237Z,5.10
2023-03-06T23:59:41.147Z,5.33
